Time;durP1;ratioP1;P1;durP2;ratioP2;P2;SDS_P1;SDS_P2;PMS_P1;PMS_P2;Temp;Humidity;BMP_temperature;BMP_pressure;BME280_temperature;BME280_humidity;BME280_pressure;Samples;Min_cycle;Max_cycle;Signal;HPM_P1;HPM_P2
2023/10/27 00:01:46;;;;;;;13.10;8.48;;;;;;;9.98;100.00;99121.84;5030011;28;20025;-82
2023/10/27 00:04:11;;;;;;;14.35;8.95;;;;;;;9.98;100.00;99124.44;5029547;28;20393;-82
2023/10/27 00:06:37;;;;;;;14.68;8.75;;;;;;;9.98;100.00;99124.44;5031083;28;20029;-82
2023/10/27 00:09:02;;;;;;;15.20;8.70;;;;;;;9.98;100.00;99129.63;5028974;28;20120;-82
2023/10/27 00:11:28;;;;;;;13.82;8.68;;;;;;;9.98;100.00;99119.25;5030339;28;20029;-82
2023/10/27 00:13:54;;;;;;;16.58;8.95;;;;;;;9.97;100.00;99123.63;5012098;28;20048;-82
2023/10/27 00:16:20;;;;;;;14.35;8.32;;;;;;;9.97;100.00;99122.75;5030395;28;20029;-82
2023/10/27 00:18:45;;;;;;;14.05;8.98;;;;;;;9.97;100.00;99112.38;5031066;28;20361;-82
2023/10/27 00:21:10;;;;;;;13.30;8.65;;;;;;;9.98;100.00;99114.06;5030936;28;20044;-82
2023/10/27 00:23:36;;;;;;;14.88;8.70;;;;;;;9.98;100.00;99116.66;5030221;28;20403;-82
2023/10/27 00:26:02;;;;;;;13.88;8.23;;;;;;;9.98;100.00;99108.84;5030937;28;20037;-82
2023/10/27 00:28:28;;;;;;;13.45;8.40;;;;;;;9.97;100.00;99107.16;5013862;28;20274;-82
2023/10/27 00:30:53;;;;;;;11.95;7.95;;;;;;;9.98;100.00;99114.06;5031711;28;20033;-82
2023/10/27 00:33:18;;;;;;;11.80;7.60;;;;;;;9.98;100.00;99103.66;5030670;28;20424;-82
2023/10/27 00:35:43;;;;;;;13.10;7.80;;;;;;;9.98;100.00;99098.47;5039850;28;20031;-82
2023/10/27 00:38:09;;;;;;;11.85;7.80;;;;;;;9.98;100.00;99098.47;5037236;28;20033;-82
2023/10/27 00:40:34;;;;;;;12.95;8.18;;;;;;;9.99;100.00;99100.16;5043389;28;20060;-82
2023/10/27 00:43:03;;;;;;;13.68;7.55;;;;;;;9.98;100.00;99106.25;5037322;28;20035;-82
2023/10/27 00:45:28;;;;;;;12.25;7.40;;;;;;;9.98;100.00;99103.66;5042517;28;20025;-82
2023/10/27 00:47:53;;;;;;;11.23;7.38;;;;;;;9.99;100.00;99100.16;5036626;28;20023;-82
2023/10/27 00:50:19;;;;;;;11.15;7.38;;;;;;;9.99;100.00;99087.16;5029590;28;20528;-82
2023/10/27 00:52:44;;;;;;;12.10;7.03;;;;;;;9.99;100.00;99090.56;5029537;28;20116;-82
2023/10/27 00:55:11;;;;;;;11.25;7.05;;;;;;;10.00;100.00;99091.44;5028382;28;20033;-82
2023/10/27 00:57:37;;;;;;;10.75;7.20;;;;;;;10.01;100.00;99099.13;5030458;28;20120;-82
2023/10/27 01:00:04;;;;;;;11.57;7.20;;;;;;;10.02;100.00;99095.63;5030013;28;20116;-82
2023/10/27 01:02:29;;;;;;;11.63;7.18;;;;;;;10.02;100.00;99094.78;5031434;28;20029;-82
2023/10/27 01:04:54;;;;;;;11.20;7.18;;;;;;;10.02;100.00;99094.78;5038272;28;20464;-82
2023/10/27 01:07:21;;;;;;;10.80;6.68;;;;;;;10.02;100.00;99093.03;5030026;28;20535;-82
2023/10/27 01:09:47;;;;;;;10.05;6.40;;;;;;;10.02;100.00;99090.44;5031195;28;20468;-82
2023/10/27 01:12:12;;;;;;;10.85;6.85;;;;;;;10.03;100.00;99086.09;5028274;28;20029;-82
2023/10/27 01:14:38;;;;;;;10.95;6.53;;;;;;;10.03;100.00;99086.91;5029698;28;20113;-82
2023/10/27 01:17:03;;;;;;;10.77;6.57;;;;;;;10.04;100.00;99087.75;5028633;28;20037;-82
2023/10/27 01:19:29;;;;;;;11.40;6.85;;;;;;;10.06;100.00;99085.94;5028868;28;20412;-82
2023/10/27 01:21:54;;;;;;;10.98;6.50;;;;;;;10.06;100.00;99085.06;5030665;28;20106;-82
2023/10/27 01:24:22;;;;;;;10.18;6.28;;;;;;;10.06;100.00;99080.72;5029942;28;20506;-82
2023/10/27 01:26:47;;;;;;;12.23;6.65;;;;;;;10.06;100.00;99082.47;5012877;28;20033;-82
2023/10/27 01:29:13;;;;;;;11.38;6.32;;;;;;;10.06;100.00;99085.94;5028467;28;20037;-82
2023/10/27 01:31:38;;;;;;;12.27;6.25;;;;;;;10.07;100.00;99081.56;5029277;28;20018;-82
2023/10/27 01:34:03;;;;;;;11.82;6.68;;;;;;;10.07;100.00;99085.00;5028349;28;20373;-82
2023/10/27 01:36:28;;;;;;;10.25;6.03;;;;;;;10.08;100.00;99089.25;5030366;28;20484;-82
2023/10/27 01:38:54;;;;;;;11.18;6.65;;;;;;;10.10;100.00;99087.44;5031052;28;20128;-82
2023/10/27 01:41:19;;;;;;;9.95;6.22;;;;;;;10.11;100.00;99078.72;5032507;28;20087;-82
2023/10/27 01:43:44;;;;;;;10.00;6.35;;;;;;;10.14;100.00;99083.75;5033577;28;20035;-82
2023/10/27 01:46:10;;;;;;;10.68;5.95;;;;;;;10.15;100.00;99080.25;5033986;28;20465;-82
2023/10/27 01:48:36;;;;;;;10.07;6.40;;;;;;;10.16;100.00;99081.09;5032591;28;20177;-82
2023/10/27 01:51:01;;;;;;;10.77;6.10;;;;;;;10.17;100.00;99077.53;5032323;28;20028;-82
2023/10/27 01:53:26;;;;;;;10.35;6.28;;;;;;;10.16;100.00;99071.53;5032042;28;20044;-82
2023/10/27 01:55:52;;;;;;;10.23;5.57;;;;;;;10.16;100.00;99071.53;5033619;28;20209;-82
2023/10/27 01:58:17;;;;;;;11.32;5.85;;;;;;;10.17;100.00;99074.94;5035599;28;20460;-82
2023/10/27 02:00:42;;;;;;;11.60;5.97;;;;;;;10.17;100.00;99068.00;5031869;28;20040;-82
2023/10/27 02:03:08;;;;;;;10.68;6.07;;;;;;;10.18;100.00;99063.63;5031718;28;20027;-82
2023/10/27 02:05:33;;;;;;;9.57;5.45;;;;;;;10.18;100.00;99066.22;5027306;28;20028;-82
2023/10/27 02:08:02;;;;;;;9.68;5.40;;;;;;;10.18;100.00;99061.91;5037627;28;20025;-83
2023/10/27 02:10:27;;;;;;;11.73;5.65;;;;;;;10.18;100.00;99061.03;5038520;28;20029;-82
2023/10/27 02:12:52;;;;;;;9.05;5.40;;;;;;;10.17;100.00;99056.75;5032039;28;20534;-82
2023/10/27 02:15:18;;;;;;;10.52;5.57;;;;;;;10.17;100.00;99055.00;5033833;28;20112;-82
2023/10/27 02:17:43;;;;;;;14.48;5.45;;;;;;;10.17;100.00;99055.00;5033575;28;20530;-82
2023/10/27 02:20:09;;;;;;;9.57;5.07;;;;;;;10.16;100.00;99053.34;5036298;28;20174;-82
2023/10/27 02:22:34;;;;;;;9.25;5.55;;;;;;;10.15;100.00;99049.06;5052010;28;20367;-82
2023/10/27 02:24:59;;;;;;;10.40;5.60;;;;;;;10.15;100.00;99048.22;5041991;28;20067;-83
2023/10/27 02:27:25;;;;;;;12.40;5.65;;;;;;;10.15;100.00;99048.22;5033494;28;20029;-82
2023/10/27 02:29:50;;;;;;;11.18;5.15;;;;;;;10.13;100.00;99040.50;5031922;28;20468;-82
2023/10/27 02:32:16;;;;;;;9.82;5.30;;;;;;;10.14;100.00;99042.19;5043617;28;20067;-82
2023/10/27 02:34:41;;;;;;;9.75;5.40;;;;;;;10.15;100.00;99043.84;5034326;28;20459;-82
2023/10/27 02:37:06;;;;;;;10.80;5.75;;;;;;;10.14;100.00;99046.56;5033068;28;20025;-82
2023/10/27 02:39:32;;;;;;;10.50;5.63;;;;;;;10.15;100.00;99043.84;5031503;28;20523;-82
2023/10/27 02:41:57;;;;;;;10.98;5.40;;;;;;;10.14;100.00;99034.38;5032941;28;20116;-82
2023/10/27 02:44:22;;;;;;;10.20;5.63;;;;;;;10.15;100.00;99040.44;5033001;28;20053;-82
2023/10/27 02:46:48;;;;;;;10.45;5.28;;;;;;;10.14;100.00;99036.16;5031522;28;20396;-82
2023/10/27 02:49:13;;;;;;;11.68;5.78;;;;;;;10.13;100.00;99035.31;5030032;28;20083;-82
2023/10/27 02:51:38;;;;;;;9.68;5.60;;;;;;;10.13;100.00;99034.47;5031167;28;20045;-82
2023/10/27 02:54:03;;;;;;;13.75;5.55;;;;;;;10.13;100.00;99034.47;5031359;28;20389;-82
2023/10/27 02:56:29;;;;;;;8.98;5.10;;;;;;;10.13;100.00;99027.50;5032336;28;20485;-82
2023/10/27 02:58:54;;;;;;;8.95;5.53;;;;;;;10.15;100.00;99032.63;5031393;28;20068;-82
2023/10/27 03:01:20;;;;;;;10.15;4.93;;;;;;;10.15;100.00;99023.06;5031028;28;20026;-82
2023/10/27 03:03:45;;;;;;;11.40;5.30;;;;;;;10.16;100.00;99023.94;5031766;28;20048;-82
2023/10/27 03:06:11;;;;;;;9.80;5.85;;;;;;;10.16;100.00;99029.13;5031059;28;20036;-82
2023/10/27 03:08:39;;;;;;;10.95;5.43;;;;;;;10.14;100.00;99029.19;5029440;28;20125;-82
2023/10/27 03:11:06;;;;;;;10.43;5.68;;;;;;;10.16;100.00;99019.56;5031651;28;20254;-82
2023/10/27 03:13:32;;;;;;;9.70;5.28;;;;;;;10.16;100.00;99029.94;5033776;28;20030;-82
2023/10/27 03:16:01;;;;;;;12.15;5.03;;;;;;;10.16;100.00;99023.94;5029474;28;21109;-82
2023/10/27 03:18:26;;;;;;;11.63;5.47;;;;;;;10.17;100.00;99020.38;5031484;28;20029;-82
2023/10/27 03:20:56;;;;;;;8.57;5.25;;;;;;;10.17;100.00;99021.22;5028984;28;20033;-82
2023/10/27 03:23:22;;;;;;;10.07;5.53;;;;;;;10.16;100.00;99022.16;5031084;28;20079;-82
2023/10/27 03:25:47;;;;;;;10.90;5.72;;;;;;;10.16;100.00;99022.16;5031007;28;20101;-82
2023/10/27 03:28:13;;;;;;;8.05;5.20;;;;;;;10.16;100.00;99021.31;5032143;28;20454;-82
2023/10/27 03:30:38;;;;;;;9.13;5.05;;;;;;;10.15;100.00;99023.06;5033310;28;20033;-82
2023/10/27 03:33:03;;;;;;;9.43;4.82;;;;;;;10.15;100.00;99017.88;5036399;28;20468;-82
2023/10/27 03:35:28;;;;;;;8.63;5.28;;;;;;;10.15;100.00;99017.88;5031081;28;20025;-82
2023/10/27 03:37:54;;;;;;;9.85;5.10;;;;;;;10.13;100.00;99017.13;5032088;28;20120;-82
2023/10/27 03:40:19;;;;;;;9.80;4.85;;;;;;;10.13;100.00;99014.50;5028181;28;20076;-82
2023/10/27 03:42:44;;;;;;;9.43;5.10;;;;;;;10.12;100.00;99014.63;5030139;28;20040;-82
2023/10/27 03:45:10;;;;;;;10.32;5.00;;;;;;;10.11;100.00;99011.16;5030289;28;20491;-82
2023/10/27 03:47:35;;;;;;;9.30;4.82;;;;;;;10.12;100.00;99012.00;5031008;28;20055;-82
2023/10/27 03:50:00;;;;;;;8.48;5.00;;;;;;;10.11;100.00;99011.16;5031402;28;20038;-82
2023/10/27 03:52:26;;;;;;;7.18;4.65;;;;;;;10.10;100.00;99013.84;5038519;28;20033;-82
2023/10/27 03:54:51;;;;;;;7.55;4.47;;;;;;;10.10;100.00;99014.69;5043075;28;20102;-82
2023/10/27 03:57:18;;;;;;;9.10;4.32;;;;;;;10.10;100.00;99013.84;5013668;28;20029;-82
2023/10/27 03:59:43;;;;;;;8.88;4.43;;;;;;;10.07;100.00;99008.81;5029316;28;20042;-82
2023/10/27 04:02:08;;;;;;;8.25;4.57;;;;;;;10.09;100.00;99012.16;5030336;28;20037;-82
2023/10/27 04:04:34;;;;;;;8.43;4.47;;;;;;;10.08;100.00;99003.53;5032072;28;20021;-82
2023/10/27 04:07:01;;;;;;;8.35;4.45;;;;;;;10.07;100.00;99004.47;5029628;28;20038;-82
2023/10/27 04:09:26;;;;;;;8.02;4.75;;;;;;;10.07;100.00;99007.06;5012958;28;20033;-82
2023/10/27 04:11:51;;;;;;;8.65;4.43;;;;;;;10.07;100.00;99006.22;5030466;28;20204;-82
2023/10/27 04:14:17;;;;;;;8.75;4.40;;;;;;;10.07;100.00;99008.81;5020771;28;20018;-82
2023/10/27 04:16:42;;;;;;;7.97;4.30;;;;;;;10.06;100.00;99002.78;5031835;28;20108;-82
2023/10/27 04:19:07;;;;;;;8.68;3.83;;;;;;;10.03;100.00;99001.19;5031887;28;20100;-82
2023/10/27 04:21:33;;;;;;;7.18;3.83;;;;;;;10.04;100.00;99004.63;5031083;28;20430;-82
2023/10/27 04:23:59;;;;;;;7.25;3.50;;;;;;;10.05;100.00;99006.31;5031921;28;20482;-82
2023/10/27 04:26:24;;;;;;;9.25;4.20;;;;;;;10.05;100.00;99005.44;5030570;28;20030;-82
2023/10/27 04:28:49;;;;;;;8.07;3.63;;;;;;;10.02;100.00;99003.88;5030881;28;20059;-82
2023/10/27 04:31:14;;;;;;;8.15;3.83;;;;;;;10.03;100.00;99008.16;5018213;28;20032;-82
2023/10/27 04:33:40;;;;;;;7.72;3.83;;;;;;;10.02;100.00;99006.47;5036135;28;20025;-82
2023/10/27 04:36:05;;;;;;;8.82;3.97;;;;;;;10.03;100.00;99008.16;5030809;28;20392;-83
2023/10/27 04:38:30;;;;;;;9.07;4.25;;;;;;;10.02;100.00;99004.69;5032831;28;20049;-82
2023/10/27 04:40:56;;;;;;;9.43;4.13;;;;;;;10.03;100.00;98997.75;5030897;28;20028;-82
2023/10/27 04:43:21;;;;;;;7.82;3.88;;;;;;;10.03;100.00;99008.16;5031472;28;20033;-82
2023/10/27 04:45:47;;;;;;;8.60;4.15;;;;;;;10.03;100.00;99003.78;5029093;28;20056;-82
2023/10/27 04:48:12;;;;;;;7.00;3.90;;;;;;;10.03;100.00;99008.16;5030294;28;20030;-82
2023/10/27 04:50:38;;;;;;;7.47;3.97;;;;;;;10.03;100.00;99015.94;5028022;28;20029;-82
2023/10/27 04:53:03;;;;;;;8.10;3.83;;;;;;;10.01;100.00;99009.97;5028147;28;20025;-82
2023/10/27 04:55:29;;;;;;;7.70;3.60;;;;;;;9.99;100.00;99007.44;5030091;28;20265;-82
2023/10/27 04:57:54;;;;;;;6.88;3.78;;;;;;;9.99;100.00;99012.63;5029385;28;20148;-82
2023/10/27 05:00:19;;;;;;;6.55;3.55;;;;;;;9.98;100.00;99012.75;5010518;28;20158;-82
2023/10/27 05:02:46;;;;;;;7.63;3.78;;;;;;;9.97;100.00;99011.91;5027751;28;20029;-82
2023/10/27 05:05:11;;;;;;;6.72;3.63;;;;;;;9.96;100.00;99007.63;5027618;28;20053;-82
2023/10/27 05:07:37;;;;;;;7.68;3.80;;;;;;;9.94;100.00;99004.28;5012599;28;20064;-82
2023/10/27 05:10:02;;;;;;;8.15;3.80;;;;;;;9.93;100.00;99002.59;5032483;28;20079;-82
2023/10/27 05:12:28;;;;;;;8.52;3.95;;;;;;;9.93;100.00;98996.53;5034092;28;20128;-82
2023/10/27 05:14:54;;;;;;;7.68;3.85;;;;;;;9.91;100.00;99001.84;5035227;28;20118;-82
2023/10/27 05:17:19;;;;;;;6.32;3.33;;;;;;;9.90;100.00;98996.72;5034563;28;20071;-82
2023/10/27 05:19:45;;;;;;;7.13;3.55;;;;;;;9.87;100.00;98998.56;5031289;28;20041;-82
2023/10/27 05:22:10;;;;;;;6.88;3.60;;;;;;;9.86;100.00;98996.03;5032557;28;20025;-82
2023/10/27 05:24:35;;;;;;;7.57;3.83;;;;;;;9.85;100.00;98994.34;5032308;28;20083;-82
2023/10/27 05:27:01;;;;;;;6.18;3.58;;;;;;;9.84;100.00;98992.66;5034882;28;20037;-82
2023/10/27 05:29:26;;;;;;;6.53;3.35;;;;;;;9.82;100.00;99000.56;5034061;28;20029;-82
2023/10/27 05:31:52;;;;;;;6.30;3.50;;;;;;;9.81;100.00;98992.84;5030898;28;20078;-82
2023/10/27 05:34:17;;;;;;;7.93;3.92;;;;;;;9.80;100.00;98989.41;5037326;28;20040;-82
2023/10/27 05:36:43;;;;;;;6.75;3.60;;;;;;;9.79;100.00;98990.31;5034489;28;20025;-82
2023/10/27 05:39:16;;;;;;;8.60;3.65;;;;;;;9.79;100.00;98997.28;5032776;28;20073;-82
2023/10/27 05:41:41;;;;;;;8.82;3.60;;;;;;;9.77;100.00;98991.34;5015726;28;20431;-82
2023/10/27 05:44:07;;;;;;;6.35;3.67;;;;;;;9.76;100.00;98985.28;5033810;28;20480;-82
2023/10/27 05:46:32;;;;;;;7.57;3.80;;;;;;;9.77;100.00;98986.97;5034342;28;20491;-82
2023/10/27 05:49:00;;;;;;;6.75;3.75;;;;;;;9.76;100.00;98984.47;5033856;28;20017;-82
2023/10/27 05:51:25;;;;;;;8.05;4.00;;;;;;;9.76;100.00;98989.66;5032132;28;20028;-82
2023/10/27 05:53:51;;;;;;;6.85;3.40;;;;;;;9.75;100.00;98987.97;5034815;28;20384;-82
2023/10/27 05:56:16;;;;;;;7.55;4.00;;;;;;;9.74;100.00;98988.91;5033839;28;20053;-82
2023/10/27 05:58:41;;;;;;;10.30;3.78;;;;;;;9.72;100.00;98989.00;5028727;28;20020;-82
2023/10/27 06:01:06;;;;;;;9.00;4.15;;;;;;;9.72;100.00;98983.78;5035423;28;20481;-82
2023/10/27 06:03:32;;;;;;;8.70;3.70;;;;;;;9.72;100.00;98983.78;5037726;28;20028;-82
2023/10/27 06:05:57;;;;;;;8.85;3.88;;;;;;;9.71;100.00;98988.13;5016350;28;20021;-82
2023/10/27 06:08:22;;;;;;;7.18;3.67;;;;;;;9.71;100.00;98992.50;5032835;28;20032;-82
2023/10/27 06:10:48;;;;;;;6.90;3.78;;;;;;;9.70;100.00;98996.00;5031143;28;20492;-82
2023/10/27 06:13:14;;;;;;;7.32;3.90;;;;;;;9.69;100.00;98997.75;5032403;28;20027;-82
2023/10/27 06:15:40;;;;;;;6.68;3.78;;;;;;;9.68;100.00;98996.06;5033770;28;20104;-82
2023/10/27 06:18:05;;;;;;;7.90;4.05;;;;;;;9.66;100.00;98997.91;5032573;28;20017;-82
2023/10/27 06:20:30;;;;;;;7.28;4.20;;;;;;;9.67;100.00;98993.56;5032922;28;20499;-82
2023/10/27 06:22:55;;;;;;;8.35;4.07;;;;;;;9.65;100.00;98988.44;5032738;28;20033;-82
2023/10/27 06:25:25;;;;;;;6.80;4.00;;;;;;;9.66;100.00;98989.28;5034117;28;20029;-82
2023/10/27 06:27:51;;;;;;;7.85;4.28;;;;;;;9.65;100.00;98993.63;5015007;28;20476;-82
2023/10/27 06:30:18;;;;;;;8.30;4.53;;;;;;;9.65;100.00;98992.81;5033892;28;20025;-82
2023/10/27 06:32:43;;;;;;;7.85;4.20;;;;;;;9.64;100.00;98996.31;5030635;28;20050;-82
2023/10/27 06:35:08;;;;;;;7.60;4.40;;;;;;;9.64;100.00;98991.13;5031050;28;20025;-82
2023/10/27 06:37:35;;;;;;;9.57;4.20;;;;;;;9.63;100.00;98992.03;5030047;28;20113;-82
2023/10/27 06:40:01;;;;;;;10.90;5.07;;;;;;;9.63;100.00;98992.03;5009123;28;20073;-82
2023/10/27 06:42:26;;;;;;;8.82;4.90;;;;;;;9.64;100.00;98996.31;5012576;28;20026;-82
2023/10/27 06:44:51;;;;;;;11.35;5.57;;;;;;;9.61;100.00;98989.53;5009549;28;20036;-82
2023/10/27 06:47:18;;;;;;;9.95;4.97;;;;;;;9.61;100.00;98991.28;5010122;28;20037;-82
2023/10/27 06:49:44;;;;;;;9.70;4.95;;;;;;;9.62;100.00;98995.56;5010135;28;20033;-82
2023/10/27 06:52:09;;;;;;;10.15;4.80;;;;;;;9.60;100.00;98992.19;5023921;28;20350;-82
2023/10/27 06:54:34;;;;;;;8.40;4.80;;;;;;;9.61;100.00;98997.31;5021983;28;20493;-82
2023/10/27 06:56:59;;;;;;;6.70;4.47;;;;;;;9.61;100.00;98991.28;5010160;28;20026;-82
2023/10/27 06:59:25;;;;;;;10.02;4.63;;;;;;;9.65;100.00;98998.00;5009633;28;20083;-82
2023/10/27 07:01:52;;;;;;;8.73;4.40;;;;;;;9.64;100.00;99001.50;5011137;28;20052;-82
2023/10/27 07:04:17;;;;;;;7.55;4.32;;;;;;;9.65;100.00;98998.81;5010782;28;20228;-82
2023/10/27 07:06:43;;;;;;;8.25;4.30;;;;;;;9.66;100.00;99004.88;5011558;28;20101;-82
2023/10/27 07:09:09;;;;;;;8.27;4.60;;;;;;;9.66;100.00;99004.88;5010781;28;20026;-82
2023/10/27 07:11:34;;;;;;;7.40;4.50;;;;;;;9.67;100.00;99003.97;5010752;28;20030;-82
2023/10/27 07:13:59;;;;;;;7.95;4.63;;;;;;;9.66;100.00;99015.25;5012865;28;20080;-82
2023/10/27 07:16:24;;;;;;;7.80;4.57;;;;;;;9.65;100.00;99013.56;5012792;28;20041;-82
2023/10/27 07:18:50;;;;;;;7.65;4.88;;;;;;;9.66;100.00;99020.44;5012344;28;20546;-82
2023/10/27 07:21:15;;;;;;;7.35;4.40;;;;;;;9.64;100.00;99017.94;5012869;28;20042;-82
2023/10/27 07:23:40;;;;;;;7.45;4.72;;;;;;;9.65;100.00;99023.97;5012977;28;20045;-82
2023/10/27 07:26:15;;;;;;;7.30;4.80;;;;;;;9.66;100.00;99020.44;5009828;28;20166;-82
2023/10/27 07:28:42;;;;;;;6.78;4.47;;;;;;;9.67;100.00;99029.91;5010118;28;20036;-82
2023/10/27 07:31:08;;;;;;;7.72;4.57;;;;;;;9.66;100.00;99028.25;5012244;28;20042;-82
2023/10/27 07:33:33;;;;;;;6.95;4.63;;;;;;;9.67;100.00;99033.34;5009408;28;20037;-82
2023/10/27 07:35:58;;;;;;;7.75;4.25;;;;;;;9.67;100.00;99032.50;5011114;28;20026;-82
2023/10/27 07:38:26;;;;;;;8.73;4.50;;;;;;;9.67;100.00;99028.16;5011390;28;20030;-82
2023/10/27 07:40:55;;;;;;;6.72;4.43;;;;;;;9.69;100.00;99030.69;5008174;28;20484;-82
2023/10/27 07:43:21;;;;;;;7.13;4.75;;;;;;;9.71;100.00;99028.84;5009765;28;20030;-82
2023/10/27 07:45:46;;;;;;;7.43;4.32;;;;;;;9.71;100.00;99026.25;5006461;28;20465;-82
2023/10/27 07:48:11;;;;;;;7.25;4.20;;;;;;;9.73;100.00;99032.22;5009722;28;20034;-82
2023/10/27 07:50:39;;;;;;;7.63;4.28;;;;;;;9.74;100.00;99031.25;5006341;28;20017;-81
2023/10/27 07:53:04;;;;;;;7.30;4.03;;;;;;;9.75;100.00;99030.34;5009155;28;20021;-82
2023/10/27 07:55:29;;;;;;;7.47;4.40;;;;;;;9.77;100.00;99033.72;5008788;28;20358;-82
2023/10/27 07:57:55;;;;;;;6.03;4.20;;;;;;;9.80;100.00;99035.31;5004984;28;20030;-82
2023/10/27 08:00:20;;;;;;;6.65;4.43;;;;;;;9.81;100.00;99037.84;5008454;28;20053;-82
2023/10/27 08:02:46;;;;;;;6.18;4.28;;;;;;;9.83;100.00;99043.78;5009756;28;20026;-82
2023/10/27 08:05:11;;;;;;;6.10;4.25;;;;;;;9.84;100.00;99045.47;5006604;28;20026;-82
2023/10/27 08:07:37;;;;;;;6.65;4.00;;;;;;;9.85;100.00;99041.09;5005408;28;20487;-82
2023/10/27 08:10:07;;;;;;;6.32;4.30;;;;;;;9.86;100.00;99048.84;5005065;28;20033;-82
2023/10/27 08:12:32;;;;;;;7.40;3.97;;;;;;;9.88;100.00;99048.75;5009218;28;20084;-82
2023/10/27 08:14:58;;;;;;;5.82;4.25;;;;;;;9.88;100.00;99061.72;5004797;28;20025;-82
2023/10/27 08:17:23;;;;;;;7.47;4.18;;;;;;;9.86;100.00;99058.38;5007230;28;20022;-82
2023/10/27 08:19:48;;;;;;;6.55;4.40;;;;;;;9.86;100.00;99055.78;5006026;28;20017;-82
2023/10/27 08:22:13;;;;;;;5.95;3.80;;;;;;;9.85;100.00;99054.09;5008155;28;20136;-82
2023/10/27 08:24:39;;;;;;;4.93;3.50;;;;;;;9.84;100.00;99062.78;5010264;28;20366;-82
2023/10/27 08:27:04;;;;;;;5.60;3.45;;;;;;;9.86;100.00;99060.97;5008431;28;20058;-82
2023/10/27 08:29:29;;;;;;;4.40;3.10;;;;;;;9.86;100.00;99064.41;5007722;28;20390;-85
2023/10/27 08:31:55;;;;;;;4.72;2.70;;;;;;;9.87;100.00;99063.50;5015987;28;20030;-82
2023/10/27 08:34:21;;;;;;;4.38;3.03;;;;;;;9.90;100.00;99070.28;5011824;28;20080;-82
2023/10/27 08:36:47;;;;;;;4.88;3.08;;;;;;;9.91;100.00;99068.50;5010436;28;20029;-82
2023/10/27 08:39:12;;;;;;;3.72;2.63;;;;;;;9.93;100.00;99070.13;5017171;28;20041;-85
2023/10/27 08:41:38;;;;;;;3.22;2.30;;;;;;;9.95;100.00;99052.72;5035265;28;20028;-82
2023/10/27 08:44:04;;;;;;;3.38;2.25;;;;;;;9.98;100.00;99056.91;5036000;28;20025;-82
2023/10/27 08:46:32;;;;;;;4.00;2.22;;;;;;;9.98;100.00;99059.50;5035103;28;20018;-82
2023/10/27 08:48:57;;;;;;;3.33;2.35;;;;;;;9.99;100.00;99066.38;5037109;28;20040;-82
2023/10/27 08:51:23;;;;;;;4.75;2.42;;;;;;;10.02;100.00;99074.84;5034735;28;20045;-82
2023/10/27 08:53:48;;;;;;;3.58;2.40;;;;;;;10.06;100.00;99072.94;5033801;28;20022;-82
2023/10/27 08:56:14;;;;;;;2.63;2.03;;;;;;;10.10;100.00;99079.63;5032477;28;20048;-82
2023/10/27 08:58:47;;;;;;;3.92;2.40;;;;;;;10.11;100.00;99078.72;5029419;28;20459;-82
2023/10/27 09:01:12;;;;;;;3.22;2.33;;;;;;;10.12;100.00;99080.41;5035086;28;20033;-82
2023/10/27 09:03:37;;;;;;;3.63;2.60;;;;;;;10.16;100.00;99081.91;5032254;28;20383;-82
2023/10/27 09:06:03;;;;;;;3.70;2.70;;;;;;;10.17;100.00;99081.00;5030979;28;20107;-82
2023/10/27 09:08:28;;;;;;;4.20;2.70;;;;;;;10.21;100.00;99084.28;5031686;28;20021;-82
2023/10/27 09:10:53;;;;;;;3.83;2.50;;;;;;;10.23;100.00;99082.44;5026895;28;20480;-82
2023/10/27 09:13:21;;;;;;;3.90;2.42;;;;;;;10.24;100.00;99083.28;5034869;28;20029;-82
2023/10/27 09:15:48;;;;;;;3.42;2.20;;;;;;;10.23;100.00;99090.22;5030042;28;20209;-82
2023/10/27 09:18:14;;;;;;;3.58;2.20;;;;;;;10.22;100.00;99091.16;5013014;28;20071;-82
2023/10/27 09:20:52;;;;;;;3.10;2.30;;;;;;;10.26;100.00;99091.81;5028185;28;20025;-83
2023/10/27 09:23:20;;;;;;;3.40;2.25;;;;;;;10.28;100.00;99100.38;5030234;28;20036;-82
2023/10/27 09:25:46;;;;;;;4.63;2.40;;;;;;;10.30;100.00;99098.53;5029128;28;20017;-83
2023/10/27 09:28:12;;;;;;;4.00;2.63;;;;;;;10.30;100.00;99093.34;5026744;28;20112;-85
2023/10/27 09:30:40;;;;;;;4.35;2.50;;;;;;;10.32;100.00;99104.50;5030936;28;20117;-85
2023/10/27 09:33:22;;;;;;;2.97;2.25;;;;;;;10.37;100.00;99099.91;5027482;28;20078;-84
2023/10/27 09:35:50;;;;;;;4.20;2.60;;;;;;;10.37;100.00;99102.50;5028455;28;20029;-84
2023/10/27 09:38:15;;;;;;;3.35;2.42;;;;;;;10.37;100.00;99099.06;5028920;28;20048;-82
2023/10/27 09:40:42;;;;;;;4.35;2.47;;;;;;;10.39;100.00;99107.66;5028742;28;20042;-83
2023/10/27 09:43:14;;;;;;;3.80;2.88;;;;;;;10.42;100.00;99102.28;5029014;28;20024;-82
2023/10/27 09:45:55;;;;;;;5.13;2.28;;;;;;;10.46;100.00;99109.00;5030812;28;20091;-84
2023/10/27 09:48:28;;;;;;;4.03;2.40;;;;;;;10.47;100.00;99106.31;5029374;28;20068;-84
2023/10/27 09:51:07;;;;;;;3.63;2.50;;;;;;;10.49;100.00;99108.84;5036674;28;20063;-84
2023/10/27 09:53:33;;;;;;;3.25;2.50;;;;;;;10.49;100.00;99114.06;5048488;28;20052;-84
2023/10/27 09:55:59;;;;;;;3.70;2.40;;;;;;;10.49;100.00;99103.66;5029850;28;20040;-82
2023/10/27 09:58:31;;;;;;;3.45;2.50;;;;;;;10.50;100.00;99094.06;5027416;28;20030;-82
2023/10/27 10:00:58;;;;;;;3.95;2.72;;;;;;;10.50;100.00;99083.69;5028480;28;20034;-82
2023/10/27 10:03:27;;;;;;;3.35;2.55;;;;;;;10.48;100.00;99076.78;5032638;28;20488;-84
2023/10/27 10:06:11;;;;;;;3.95;2.45;;;;;;;10.50;100.00;99083.69;5012108;28;20018;-84
2023/10/27 10:08:40;;;;;;;3.60;2.55;;;;;;;10.51;100.00;99106.16;5027790;28;20400;-84
2023/10/27 10:11:16;;;;;;;4.10;2.65;;;;;;;10.51;100.00;99101.78;5026545;28;20602;-83
2023/10/27 10:13:41;;;;;;;5.25;3.10;;;;;;;10.51;100.00;99093.16;5033753;28;20454;-83
2023/10/27 10:16:08;;;;;;;4.35;2.70;;;;;;;10.52;100.00;99093.06;5035197;28;20104;-84
2023/10/27 10:18:33;;;;;;;4.95;3.20;;;;;;;10.54;100.00;99095.59;5014544;28;20029;-83
2023/10/27 10:20:59;;;;;;;4.25;3.03;;;;;;;10.59;100.00;99098.81;5030219;28;20025;-85
2023/10/27 10:23:37;;;;;;;4.05;2.78;;;;;;;10.62;100.00;99096.88;5029305;28;20405;-84
2023/10/27 10:26:03;;;;;;;4.78;2.88;;;;;;;10.67;100.00;99103.59;5030124;28;20048;-83
2023/10/27 10:28:36;;;;;;;4.18;2.63;;;;;;;10.69;100.00;99106.91;5029862;28;20049;-83
2023/10/27 10:31:07;;;;;;;3.40;2.42;;;;;;;10.71;100.00;99108.53;5028518;28;20037;-83
2023/10/27 10:33:36;;;;;;;3.50;2.60;;;;;;;10.72;100.00;99115.41;5027816;28;20034;-83
2023/10/27 10:36:22;;;;;;;4.50;2.88;;;;;;;10.70;100.00;99132.84;5025766;28;20041;-83
2023/10/27 10:38:53;;;;;;;4.15;2.42;;;;;;;10.69;100.00;99130.31;5025847;28;20132;-82
2023/10/27 10:41:19;;;;;;;5.18;2.90;;;;;;;10.66;100.00;99128.75;5028155;28;20033;-83
2023/10/27 10:44:04;;;;;;;3.67;2.70;;;;;;;10.65;100.00;99134.84;5027036;28;21134;-83
2023/10/27 10:46:30;;;;;;;4.40;3.28;;;;;;;10.61;100.00;99130.72;5028218;28;20092;-84
2023/10/27 10:48:55;;;;;;;5.18;3.28;;;;;;;10.60;100.00;99121.25;5027821;28;20112;-84
2023/10/27 10:51:29;;;;;;;4.93;3.33;;;;;;;10.57;100.00;99132.66;5026327;28;20378;-83
2023/10/27 10:53:55;;;;;;;4.10;3.05;;;;;;;10.59;100.00;99135.22;5026259;28;20029;-84
2023/10/27 10:56:21;;;;;;;6.30;3.30;;;;;;;10.58;100.00;99128.31;5027650;28;20040;-83
2023/10/27 10:58:46;;;;;;;4.50;3.00;;;;;;;10.57;100.00;99139.66;5026217;28;20033;-82
2023/10/27 11:01:17;;;;;;;4.60;2.85;;;;;;;10.56;100.00;99130.16;5026339;28;20056;-82
2023/10/27 11:03:55;;;;;;;5.07;2.80;;;;;;;10.56;100.00;99131.00;5026802;28;20021;-83
2023/10/27 11:06:25;;;;;;;4.20;2.67;;;;;;;10.56;100.00;99124.97;5029173;28;20025;-83
2023/10/27 11:08:51;;;;;;;3.73;2.40;;;;;;;10.56;100.00;99124.97;5026212;28;20029;-83
2023/10/27 11:11:17;;;;;;;2.97;2.28;;;;;;;10.52;100.00;99123.44;5029243;28;20693;-83
2023/10/27 11:13:45;;;;;;;3.38;2.28;;;;;;;10.51;100.00;99126.97;5008026;28;20029;-83
2023/10/27 11:16:14;;;;;;;3.55;2.13;;;;;;;10.50;100.00;99115.72;5031421;28;20033;-83
2023/10/27 11:18:40;;;;;;;3.13;2.15;;;;;;;10.49;100.00;99114.06;5031883;28;20021;-82
2023/10/27 11:21:05;;;;;;;3.85;2.40;;;;;;;10.51;100.00;99121.75;5027554;28;20144;-83
2023/10/27 11:23:31;;;;;;;4.43;2.28;;;;;;;10.50;100.00;99118.34;5027357;28;20036;-83